createdAt,value
2022-08-31T00:03:48.237Z,0
2022-08-31T00:08:39.053Z,0
2022-08-31T00:11:04.192Z,0
2022-08-31T00:13:29.310Z,0
2022-08-31T00:15:55.939Z,0
2022-08-31T00:18:22.550Z,0
2022-08-31T00:20:49.175Z,0
2022-08-31T00:23:15.808Z,0
2022-08-31T00:25:42.417Z,0
2022-08-31T00:28:09.172Z,0
2022-08-31T00:30:35.675Z,0
2022-08-31T00:33:02.296Z,0
2022-08-31T00:35:27.456Z,0
2022-08-31T00:37:54.043Z,0
2022-08-31T00:40:19.235Z,0
2022-08-31T00:42:45.833Z,0
2022-08-31T00:45:10.981Z,0
2022-08-31T00:47:37.550Z,0
2022-08-31T00:50:04.187Z,0
2022-08-31T00:52:29.956Z,0
2022-08-31T00:57:23.142Z,0
2022-08-31T00:59:49.773Z,0
2022-08-31T01:02:16.447Z,0
2022-08-31T01:04:43.040Z,0
2022-08-31T01:07:09.665Z,0
2022-08-31T01:09:36.250Z,0
2022-08-31T01:12:02.884Z,0
2022-08-31T01:14:29.539Z,0
2022-08-31T01:16:54.706Z,0
2022-08-31T01:19:21.256Z,0
2022-08-31T01:21:47.929Z,0
2022-08-31T01:24:14.502Z,0
2022-08-31T01:26:41.123Z,0
2022-08-31T01:31:34.376Z,0
2022-08-31T01:34:00.993Z,0
2022-08-31T01:36:27.612Z,0
2022-08-31T01:38:53.430Z,0
2022-08-31T01:41:20.076Z,0
2022-08-31T01:43:46.684Z,0
2022-08-31T01:46:13.301Z,0
2022-08-31T01:48:38.433Z,0
2022-08-31T01:51:05.067Z,0
2022-08-31T01:53:30.184Z,0
2022-08-31T01:58:23.440Z,0
2022-08-31T02:00:50.059Z,0
2022-08-31T02:05:43.295Z,0
2022-08-31T02:08:09.922Z,0
2022-08-31T02:10:36.551Z,0
2022-08-31T02:13:03.173Z,0
2022-08-31T02:15:29.788Z,0
2022-08-31T02:17:56.404Z,0
2022-08-31T02:20:23.032Z,0
2022-08-31T02:22:49.663Z,0
2022-08-31T02:25:16.274Z,0
2022-08-31T02:27:41.419Z,0
2022-08-31T02:30:08.032Z,0
2022-08-31T02:32:34.654Z,0
2022-08-31T02:35:01.292Z,0
2022-08-31T02:37:27.901Z,0
2022-08-31T02:39:54.528Z,0
2022-08-31T02:42:19.654Z,0
2022-08-31T02:44:46.279Z,0
2022-08-31T02:47:12.901Z,0
2022-08-31T02:49:39.525Z,0
2022-08-31T02:52:06.139Z,0
2022-08-31T02:54:32.763Z,0
2022-08-31T02:56:57.908Z,0
2022-08-31T02:59:24.523Z,0
2022-08-31T03:01:49.638Z,0
2022-08-31T03:04:16.274Z,0
2022-08-31T03:06:42.892Z,0
2022-08-31T03:11:36.146Z,0
2022-08-31T03:14:02.764Z,0
2022-08-31T03:16:29.394Z,0
2022-08-31T03:18:56.016Z,0
2022-08-31T03:21:22.629Z,0
2022-08-31T03:23:49.247Z,0
2022-08-31T03:26:14.932Z,0
2022-08-31T03:28:41.554Z,0
2022-08-31T03:31:08.180Z,0
2022-08-31T03:33:34.806Z,0
2022-08-31T03:36:01.414Z,0
2022-08-31T03:38:26.554Z,0
2022-08-31T03:40:53.177Z,0
2022-08-31T03:43:19.786Z,0
2022-08-31T03:45:46.422Z,0
2022-08-31T03:48:13.033Z,0
2022-08-31T03:50:39.655Z,0
2022-08-31T03:53:06.279Z,0
2022-08-31T03:55:32.913Z,0
2022-08-31T04:00:25.372Z,0
2022-08-31T04:02:51.972Z,0
2022-08-31T04:05:18.596Z,0
2022-08-31T04:07:45.216Z,0
2022-08-31T04:10:10.351Z,0
2022-08-31T04:12:36.954Z,0
2022-08-31T04:15:03.594Z,0
2022-08-31T04:17:29.383Z,0
2022-08-31T04:19:56.015Z,0
2022-08-31T04:22:22.623Z,0
2022-08-31T04:24:49.253Z,4
2022-08-31T04:27:15.890Z,4
2022-08-31T04:29:42.501Z,4
2022-08-31T04:32:09.122Z,4
2022-08-31T04:34:35.754Z,12
2022-08-31T04:37:02.381Z,12
2022-08-31T04:39:29.004Z,16
2022-08-31T04:41:54.114Z,20
2022-08-31T04:44:20.747Z,24
2022-08-31T04:46:47.369Z,28
2022-08-31T04:49:13.998Z,28
2022-08-31T04:51:40.643Z,36
2022-08-31T04:54:07.233Z,36
2022-08-31T04:56:33.847Z,44
2022-08-31T04:59:00.476Z,56
2022-08-31T05:01:27.097Z,64
2022-08-31T05:03:53.725Z,72
2022-08-31T05:06:20.346Z,84
2022-08-31T05:08:46.979Z,100
2022-08-31T05:11:13.600Z,120
2022-08-31T05:13:38.713Z,144
2022-08-31T05:16:05.339Z,172
2022-08-31T05:18:31.950Z,204
2022-08-31T05:20:58.577Z,236
2022-08-31T05:23:25.209Z,265
2022-08-31T05:25:51.060Z,289
2022-08-31T05:28:17.684Z,309
2022-08-31T05:30:44.292Z,317
2022-08-31T05:33:10.915Z,317
2022-08-31T05:35:37.543Z,321
2022-08-31T05:38:04.180Z,333
2022-08-31T05:40:30.788Z,357
2022-08-31T05:42:57.417Z,373
2022-08-31T05:45:22.532Z,377
2022-08-31T05:47:49.161Z,373
2022-08-31T05:50:15.788Z,377
2022-08-31T05:52:42.412Z,405
2022-08-31T05:55:09.029Z,433
2022-08-31T05:57:35.050Z,477
2022-08-31T06:00:01.671Z,526
2022-08-31T06:02:28.335Z,598
2022-08-31T06:04:54.917Z,718
2022-08-31T06:07:21.540Z,879
2022-08-31T06:09:48.153Z,1072
2022-08-31T06:12:14.791Z,1268
2022-08-31T06:14:41.391Z,1381
2022-08-31T06:17:06.526Z,1377
2022-08-31T06:19:33.165Z,1252
2022-08-31T06:21:59.795Z,1116
2022-08-31T06:24:26.392Z,983
2022-08-31T06:26:53.028Z,911
2022-08-31T06:29:19.700Z,891
2022-08-31T06:31:46.260Z,911
2022-08-31T06:34:12.892Z,939
2022-08-31T06:36:39.567Z,959
2022-08-31T06:39:06.152Z,971
2022-08-31T06:41:32.815Z,995
2022-08-31T06:43:59.402Z,1015
2022-08-31T06:46:26.047Z,1036
2022-08-31T06:48:51.146Z,1060
2022-08-31T06:51:17.775Z,1108
2022-08-31T06:53:44.386Z,1172
2022-08-31T06:56:11.018Z,1212
2022-08-31T06:58:37.628Z,1244
2022-08-31T07:01:04.277Z,1264
2022-08-31T07:03:30.937Z,1264
2022-08-31T07:05:57.771Z,1240
2022-08-31T07:08:24.124Z,1228
2022-08-31T07:10:50.776Z,1228
2022-08-31T07:13:17.379Z,1168
2022-08-31T07:15:43.987Z,1224
2022-08-31T07:18:10.625Z,1248
2022-08-31T07:20:35.750Z,1293
2022-08-31T07:23:02.360Z,1345
2022-08-31T07:25:28.998Z,1405
2022-08-31T07:27:55.614Z,1465
2022-08-31T07:30:22.227Z,1533
2022-08-31T07:32:48.865Z,1574
2022-08-31T07:35:15.489Z,1582
2022-08-31T07:37:42.129Z,1574
2022-08-31T07:40:08.738Z,1550
2022-08-31T07:42:34.445Z,1513
2022-08-31T07:45:01.061Z,1493
2022-08-31T07:47:27.696Z,1469
2022-08-31T07:49:54.315Z,1473
2022-08-31T07:52:19.439Z,1485
2022-08-31T07:54:46.086Z,1477
2022-08-31T07:57:12.711Z,1509
2022-08-31T07:59:39.300Z,1610
2022-08-31T08:04:32.584Z,1799
2022-08-31T08:06:59.179Z,1919
2022-08-31T08:09:25.803Z,2011
2022-08-31T08:11:52.419Z,2148
2022-08-31T08:14:19.041Z,2192
2022-08-31T08:16:45.692Z,2204
2022-08-31T08:19:12.294Z,2204
2022-08-31T08:21:38.910Z,2176
2022-08-31T08:24:05.546Z,2208
2022-08-31T08:26:30.663Z,2216
2022-08-31T08:28:57.510Z,2309
2022-08-31T08:31:23.903Z,2357
2022-08-31T08:33:50.535Z,2361
2022-08-31T08:36:17.148Z,2393
2022-08-31T08:38:43.759Z,2441
2022-08-31T08:41:10.404Z,2457
2022-08-31T08:43:37.012Z,2473
2022-08-31T08:46:03.631Z,2313
2022-08-31T08:48:30.360Z,2321
2022-08-31T08:50:56.902Z,2140
2022-08-31T08:53:23.540Z,1847
2022-08-31T08:58:15.253Z,1766
2022-08-31T09:00:41.880Z,1859
2022-08-31T09:03:08.508Z,1847
2022-08-31T09:05:35.124Z,1915
2022-08-31T09:08:00.268Z,1847
2022-08-31T09:10:26.867Z,1987
2022-08-31T09:12:53.514Z,2256
2022-08-31T09:15:20.128Z,2602
2022-08-31T09:17:46.761Z,2766
2022-08-31T09:22:39.992Z,3019
2022-08-31T09:25:06.611Z,3256
2022-08-31T09:27:33.238Z,3650
2022-08-31T09:29:59.852Z,4160
2022-08-31T09:32:26.736Z,4525
2022-08-31T09:34:52.160Z,6272
2022-08-31T09:37:18.776Z,7625
2022-08-31T09:42:10.529Z,9207
2022-08-31T09:44:35.664Z,8742
2022-08-31T09:47:00.795Z,8252
2022-08-31T09:49:26.618Z,7854
2022-08-31T09:51:53.228Z,7906
2022-08-31T09:54:19.857Z,7139
2022-08-31T09:56:46.479Z,6477
2022-08-31T09:59:13.109Z,6429
2022-08-31T10:01:39.723Z,6822
2022-08-31T10:04:06.343Z,7352
2022-08-31T10:06:32.961Z,5766
2022-08-31T10:08:59.599Z,6212
2022-08-31T10:11:24.720Z,6983
2022-08-31T10:13:49.853Z,7204
2022-08-31T10:16:16.469Z,7384
2022-08-31T10:18:43.103Z,9842
2022-08-31T10:21:09.732Z,11561
2022-08-31T10:23:36.351Z,10669
2022-08-31T10:26:02.957Z,7922
2022-08-31T10:28:29.583Z,7850
2022-08-31T10:30:56.218Z,8465
2022-08-31T10:33:22.842Z,9372
2022-08-31T10:35:49.468Z,10276
2022-08-31T10:38:16.074Z,10986
2022-08-31T10:40:42.693Z,11569
2022-08-31T10:43:09.327Z,10191
2022-08-31T10:45:34.455Z,9320
2022-08-31T10:48:01.085Z,9288
2022-08-31T10:50:27.724Z,9790
2022-08-31T10:52:54.347Z,10079
2022-08-31T10:55:20.945Z,9870
2022-08-31T10:57:46.959Z,9601
2022-08-31T11:00:13.589Z,8971
2022-08-31T11:02:40.196Z,7983
2022-08-31T11:05:06.815Z,7151
2022-08-31T11:07:33.453Z,6798
2022-08-31T11:10:00.060Z,5449
2022-08-31T11:12:26.728Z,4156
2022-08-31T11:14:53.317Z,3706
2022-08-31T11:17:19.948Z,3634
2022-08-31T11:22:11.009Z,3489
2022-08-31T11:24:37.626Z,2987
2022-08-31T11:27:04.237Z,2545
2022-08-31T11:29:30.867Z,2485
2022-08-31T11:31:57.481Z,2618
2022-08-31T11:34:24.111Z,2943
2022-08-31T11:36:50.716Z,3100
2022-08-31T11:39:17.349Z,3389
2022-08-31T11:41:43.968Z,4300
2022-08-31T11:44:10.788Z,4738
2022-08-31T11:46:37.245Z,4156
2022-08-31T11:49:03.849Z,3863
2022-08-31T11:51:28.976Z,3802
2022-08-31T11:53:55.589Z,3794
2022-08-31T11:56:22.211Z,4521
2022-08-31T11:58:48.847Z,5477
2022-08-31T12:01:15.454Z,5625
2022-08-31T12:03:42.082Z,5320
2022-08-31T12:06:08.752Z,4790
2022-08-31T12:08:35.331Z,4907
2022-08-31T12:11:01.963Z,5730
2022-08-31T12:13:28.581Z,7204
2022-08-31T12:15:55.197Z,7473
2022-08-31T12:18:21.827Z,6722
2022-08-31T12:20:48.447Z,6055
2022-08-31T12:23:13.569Z,5822
2022-08-31T12:30:32.513Z,4862
2022-08-31T12:32:59.138Z,5091
2022-08-31T12:35:25.746Z,5722
2022-08-31T12:37:52.375Z,5758
2022-08-31T12:40:19.000Z,5625
2022-08-31T12:45:12.240Z,5517
2022-08-31T12:47:37.385Z,5284
2022-08-31T12:50:02.514Z,4469
2022-08-31T12:52:29.129Z,3931
2022-08-31T12:54:55.761Z,3489
2022-08-31T12:57:22.387Z,3244
2022-08-31T12:59:49.003Z,3276
2022-08-31T13:02:15.656Z,3108
2022-08-31T13:04:42.250Z,2959
2022-08-31T13:07:08.865Z,2814
2022-08-31T13:09:35.482Z,2686
2022-08-31T13:12:02.119Z,2590
2022-08-31T13:14:27.250Z,2505
2022-08-31T13:16:52.371Z,2429
2022-08-31T13:19:19.028Z,2433
2022-08-31T13:21:45.622Z,2441
2022-08-31T13:24:12.249Z,2582
2022-08-31T13:26:38.901Z,3067
2022-08-31T13:29:05.489Z,2802
2022-08-31T13:31:32.122Z,2626
2022-08-31T13:33:58.724Z,2401
2022-08-31T13:36:25.357Z,2337
2022-08-31T13:38:51.984Z,2598
2022-08-31T13:41:18.595Z,2955
2022-08-31T13:43:45.223Z,3525
2022-08-31T13:46:11.857Z,3156
2022-08-31T13:48:36.966Z,3320
2022-08-31T13:51:03.603Z,3762
2022-08-31T13:53:29.639Z,4501
2022-08-31T13:55:56.273Z,4698
2022-08-31T13:58:22.899Z,4674
2022-08-31T14:00:49.508Z,4421
2022-08-31T14:03:16.139Z,5043
2022-08-31T14:05:42.754Z,5465
2022-08-31T14:08:09.388Z,4445
2022-08-31T14:10:36.001Z,3794
2022-08-31T14:13:02.638Z,4140
2022-08-31T14:17:55.872Z,4593
2022-08-31T14:20:21.000Z,3517
2022-08-31T14:22:47.625Z,3778
2022-08-31T14:25:14.235Z,3810
2022-08-31T14:27:40.858Z,3389
2022-08-31T14:30:07.499Z,2513
2022-08-31T14:32:34.106Z,1594
2022-08-31T14:35:00.742Z,1011
2022-08-31T14:37:27.354Z,1068
2022-08-31T14:39:53.987Z,1489
2022-08-31T14:42:20.604Z,2023
2022-08-31T14:44:47.222Z,2268
2022-08-31T14:47:13.862Z,2349
2022-08-31T14:49:39.553Z,2449
2022-08-31T14:52:04.674Z,2497
2022-08-31T14:54:31.311Z,2337
2022-08-31T14:56:57.922Z,2296
2022-08-31T14:59:24.552Z,2373
2022-08-31T15:01:51.176Z,2228
2022-08-31T15:06:44.413Z,2043
2022-08-31T15:09:11.048Z,1939
2022-08-31T15:11:37.675Z,1726
2022-08-31T15:14:04.288Z,1505
2022-08-31T15:16:30.918Z,1216
2022-08-31T15:18:57.524Z,1028
2022-08-31T15:31:10.655Z,1750
2022-08-31T15:33:35.787Z,1019
2022-08-31T15:36:02.403Z,807
2022-08-31T15:38:27.535Z,907
2022-08-31T15:40:54.153Z,1337
2022-08-31T15:45:47.389Z,1357
2022-08-31T15:48:14.045Z,1212
2022-08-31T15:50:40.661Z,991
2022-08-31T15:53:07.271Z,847
2022-08-31T15:55:33.887Z,879
2022-08-31T16:00:27.145Z,883
2022-08-31T16:02:53.762Z,883
2022-08-31T16:05:20.385Z,867
2022-08-31T16:07:47.010Z,883
2022-08-31T16:10:13.628Z,1044
2022-08-31T16:12:38.765Z,1594
2022-08-31T16:17:32.013Z,2309
2022-08-31T16:19:58.635Z,2586
2022-08-31T16:22:23.791Z,2963
2022-08-31T16:24:50.391Z,2011
2022-08-31T16:29:43.637Z,1184
2022-08-31T16:32:10.255Z,1011
2022-08-31T16:34:36.887Z,967
2022-08-31T16:37:03.510Z,1024
2022-08-31T16:41:56.757Z,1076
2022-08-31T16:44:23.366Z,855
2022-08-31T16:46:49.102Z,742
2022-08-31T16:49:15.721Z,654
2022-08-31T16:51:42.340Z,638
2022-08-31T16:54:08.065Z,634
2022-08-31T16:56:33.184Z,650
2022-08-31T16:58:59.814Z,658
2022-08-31T17:01:25.588Z,670
2022-08-31T17:03:52.240Z,702
2022-08-31T17:06:18.830Z,762
2022-08-31T17:08:45.460Z,815
2022-08-31T17:13:38.713Z,967
2022-08-31T17:16:05.328Z,899
2022-08-31T17:18:31.953Z,738
2022-08-31T17:23:23.705Z,606
2022-08-31T17:28:15.465Z,413
2022-08-31T17:30:42.085Z,345
2022-08-31T17:33:08.699Z,317
2022-08-31T17:38:00.464Z,277
2022-08-31T17:42:52.207Z,236
2022-08-31T17:45:17.361Z,220
2022-08-31T17:47:43.970Z,220
2022-08-31T17:50:10.595Z,212
2022-08-31T17:52:36.279Z,184
2022-08-31T17:57:29.518Z,136
2022-08-31T17:59:56.135Z,112
2022-08-31T18:02:22.761Z,92
2022-08-31T18:04:49.399Z,72
2022-08-31T18:07:16.015Z,56
2022-08-31T18:09:42.636Z,44
2022-08-31T18:12:09.258Z,32
2022-08-31T18:14:35.879Z,24
2022-08-31T18:17:02.506Z,20
2022-08-31T18:19:27.647Z,12
2022-08-31T18:21:54.252Z,8
2022-08-31T18:24:20.886Z,4
2022-08-31T18:26:47.495Z,4
2022-08-31T18:29:14.121Z,4
2022-08-31T18:31:39.924Z,0
2022-08-31T18:36:33.177Z,0
2022-08-31T18:38:59.799Z,0
2022-08-31T18:41:26.426Z,0
2022-08-31T18:43:53.034Z,0
2022-08-31T18:46:19.658Z,0
2022-08-31T18:48:46.289Z,0
2022-08-31T18:51:11.416Z,0
2022-08-31T18:53:36.543Z,0
2022-08-31T18:56:03.172Z,0
2022-08-31T18:58:28.300Z,0
2022-08-31T19:00:54.932Z,0
2022-08-31T19:03:21.547Z,0
2022-08-31T19:05:48.160Z,0
2022-08-31T19:08:14.797Z,0
2022-08-31T19:10:41.434Z,0
2022-08-31T19:13:08.059Z,0
2022-08-31T19:15:34.667Z,0
2022-08-31T19:18:01.278Z,0
2022-08-31T19:20:26.415Z,0
2022-08-31T19:22:51.543Z,0
2022-08-31T19:25:18.168Z,0
2022-08-31T19:27:44.785Z,0
2022-08-31T19:30:11.412Z,0
2022-08-31T19:32:38.039Z,0
2022-08-31T19:35:04.650Z,0
2022-08-31T19:37:31.280Z,0
2022-08-31T19:39:57.897Z,0
2022-08-31T19:42:24.507Z,0
2022-08-31T19:44:51.134Z,0
2022-08-31T19:47:17.784Z,0
2022-08-31T19:49:44.392Z,0
2022-08-31T19:52:11.015Z,0
2022-08-31T19:54:36.136Z,0
2022-08-31T19:57:02.751Z,0
2022-08-31T19:59:29.380Z,0
2022-08-31T20:01:56.013Z,0
2022-08-31T20:04:22.618Z,0
2022-08-31T20:06:48.556Z,0
2022-08-31T20:09:15.170Z,0
2022-08-31T20:11:41.791Z,0
2022-08-31T20:14:08.417Z,0
2022-08-31T20:16:35.030Z,0
2022-08-31T20:19:01.662Z,0
2022-08-31T20:21:28.295Z,0
2022-08-31T20:23:54.908Z,0
2022-08-31T20:26:20.037Z,0
2022-08-31T20:28:46.666Z,0
2022-08-31T20:31:13.285Z,0
2022-08-31T20:33:39.917Z,0
2022-08-31T20:36:06.537Z,0
2022-08-31T20:38:33.420Z,0
2022-08-31T20:40:59.771Z,0
2022-08-31T20:43:26.392Z,0
2022-08-31T20:45:53.091Z,0
2022-08-31T20:48:19.718Z,0
2022-08-31T20:50:46.330Z,0
2022-08-31T20:53:12.938Z,0
2022-08-31T20:55:39.575Z,0
2022-08-31T20:58:04.691Z,0
2022-08-31T21:00:31.317Z,0
2022-08-31T21:02:57.960Z,0
2022-08-31T21:05:23.675Z,0
2022-08-31T21:07:50.298Z,0
2022-08-31T21:10:16.915Z,0
2022-08-31T21:12:43.541Z,0
2022-08-31T21:15:10.168Z,0
2022-08-31T21:17:36.780Z,0
2022-08-31T21:20:03.423Z,0
2022-08-31T21:22:30.025Z,0
2022-08-31T21:24:56.656Z,0
2022-08-31T21:27:23.516Z,0
2022-08-31T21:29:49.896Z,0
2022-08-31T21:32:15.023Z,0
2022-08-31T21:34:41.655Z,0
2022-08-31T21:37:08.266Z,0
2022-08-31T21:39:34.901Z,0
2022-08-31T21:42:01.511Z,0
2022-08-31T21:44:28.221Z,0
2022-08-31T21:46:54.830Z,0
2022-08-31T21:49:21.472Z,0
2022-08-31T21:51:48.078Z,0
2022-08-31T21:54:14.699Z,0
2022-08-31T21:56:41.318Z,0
2022-08-31T21:59:07.944Z,0
2022-08-31T22:01:34.560Z,0
2022-08-31T22:04:00.300Z,0
2022-08-31T22:06:26.940Z,0
2022-08-31T22:08:52.048Z,0
2022-08-31T22:11:18.692Z,0
2022-08-31T22:13:45.293Z,0
2022-08-31T22:16:11.192Z,0
2022-08-31T22:18:37.826Z,0
2022-08-31T22:21:04.456Z,0
2022-08-31T22:23:31.074Z,0
2022-08-31T22:25:57.712Z,0
2022-08-31T22:28:24.320Z,0
2022-08-31T22:30:50.965Z,0
2022-08-31T22:33:17.571Z,0
2022-08-31T22:35:44.189Z,0
2022-08-31T22:38:10.813Z,0
2022-08-31T22:40:35.931Z,0
2022-08-31T22:45:29.189Z,0
2022-08-31T22:47:55.811Z,0
2022-08-31T22:50:22.427Z,0
2022-08-31T22:52:49.043Z,0
2022-08-31T22:55:15.670Z,0
2022-08-31T22:57:42.304Z,0
2022-08-31T23:00:08.918Z,0
2022-08-31T23:02:35.553Z,0
2022-08-31T23:05:02.173Z,0
2022-08-31T23:07:28.783Z,0
2022-08-31T23:09:55.405Z,0
2022-08-31T23:12:20.536Z,0
2022-08-31T23:14:47.153Z,0
2022-08-31T23:17:13.791Z,0
2022-08-31T23:19:40.408Z,0
2022-08-31T23:22:07.020Z,0
2022-08-31T23:24:33.645Z,0
2022-08-31T23:27:00.279Z,0
2022-08-31T23:29:26.896Z,0
2022-08-31T23:31:53.528Z,0
2022-08-31T23:34:20.134Z,0
2022-08-31T23:36:46.756Z,0
2022-08-31T23:39:13.374Z,0
2022-08-31T23:41:40.010Z,0
2022-08-31T23:44:05.141Z,0
2022-08-31T23:46:31.759Z,0
2022-08-31T23:48:58.367Z,0
2022-08-31T23:51:24.996Z,0
2022-08-31T23:53:51.616Z,0
2022-08-31T23:56:18.249Z,0
2022-08-31T23:58:44.864Z,0
